Time;durP1;ratioP1;P1;durP2;ratioP2;P2;SDS_P1;SDS_P2;PMS_P1;PMS_P2;Temp;Humidity;BMP_temperature;BMP_pressure;BME280_temperature;BME280_humidity;BME280_pressure;Samples;Min_cycle;Max_cycle;Signal;HPM_P1;HPM_P2
2023/01/17 00:01:03;;;;;;;;;;;18.50;47.20;;;;;;5003118;28;19988;-51
2023/01/17 00:03:28;;;;;;;;;;;18.40;47.20;;;;;;4996237;28;19944;-52
2023/01/17 00:11:22;;;;;;;;;;;18.40;47.40;;;;;;5023212;28;20395;-51
2023/01/17 00:13:47;;;;;;;;;;;18.40;47.40;;;;;;5018908;28;19914;-51
2023/01/17 00:16:13;;;;;;;;;;;18.40;47.40;;;;;;4998462;28;19961;-52
2023/01/17 00:18:38;;;;;;;;;;;18.30;47.40;;;;;;5000274;28;19914;-53
2023/01/17 00:26:32;;;;;;;;;;;18.30;47.50;;;;;;5001838;28;19920;-53
2023/01/17 01:35:37;;;;;;;;;;;17.70;47.70;;;;;;5009726;28;19924;-51
2023/01/17 01:38:03;;;;;;;;;;;17.70;47.70;;;;;;5001892;28;19913;-51
2023/01/17 01:40:28;;;;;;;;;;;17.70;47.70;;;;;;4992287;28;19922;-51
2023/01/17 01:42:54;;;;;;;;;;;17.70;47.80;;;;;;5000014;28;19913;-52
2023/01/17 01:45:24;;;;;;;;;;;17.70;48.00;;;;;;4995347;28;19918;-53
2023/01/17 01:47:50;;;;;;;;;;;17.70;47.80;;;;;;4999764;28;19918;-53
2023/01/17 01:50:15;;;;;;;;;;;17.70;47.80;;;;;;5025324;28;20431;-53
2023/01/17 01:52:42;;;;;;;;;;;17.70;47.80;;;;;;4994436;28;20416;-53
2023/01/17 01:55:21;;;;;;;;;;;17.60;47.80;;;;;;4993115;28;19918;-53
2023/01/17 01:57:48;;;;;;;;;;;17.60;47.90;;;;;;5006389;28;19917;-53
2023/01/17 02:00:17;;;;;;;;;;;17.60;48.00;;;;;;5024623;28;19923;-53
2023/01/17 02:02:43;;;;;;;;;;;17.60;48.10;;;;;;4996743;28;20048;-53
2023/01/17 02:05:08;;;;;;;;;;;17.60;48.00;;;;;;5008519;28;19967;-53
2023/01/17 02:07:36;;;;;;;;;;;17.60;47.90;;;;;;4998015;28;20016;-53
2023/01/17 02:10:02;;;;;;;;;;;17.50;47.90;;;;;;5010742;28;19913;-51
2023/01/17 02:12:27;;;;;;;;;;;17.50;47.90;;;;;;5005884;28;19924;-52
2023/01/17 02:14:53;;;;;;;;;;;17.50;47.80;;;;;;4993070;28;19914;-51
2023/01/17 02:17:37;;;;;;;;;;;17.60;47.70;;;;;;5008959;28;20004;-51
2023/01/17 02:20:20;;;;;;;;;;;17.70;47.40;;;;;;4996146;28;20012;-51
2023/01/17 02:22:58;;;;;;;;;;;18.00;47.50;;;;;;5036429;28;19927;-51
2023/01/17 02:25:35;;;;;;;;;;;18.40;46.90;;;;;;5014708;28;19924;-51
2023/01/17 02:28:07;;;;;;;;;;;18.80;46.10;;;;;;5030855;28;19913;-51
2023/01/17 02:30:33;;;;;;;;;;;19.30;45.10;;;;;;5007635;28;19921;-51
2023/01/17 02:33:24;;;;;;;;;;;19.80;44.20;;;;;;5030455;28;19913;-51
2023/01/17 02:36:03;;;;;;;;;;;20.20;43.40;;;;;;5007639;28;19917;-51
2023/01/17 02:38:45;;;;;;;;;;;20.60;42.50;;;;;;4992579;28;21364;-52
2023/01/17 02:41:12;;;;;;;;;;;20.70;42.30;;;;;;5028099;28;19918;-51
2023/01/17 02:43:38;;;;;;;;;;;20.50;42.40;;;;;;5045359;28;19909;-51
2023/01/17 02:46:03;;;;;;;;;;;20.40;42.70;;;;;;4997979;28;20000;-51
2023/01/17 02:48:30;;;;;;;;;;;20.20;43.10;;;;;;4996635;28;19917;-51
2023/01/17 02:50:55;;;;;;;;;;;20.00;43.40;;;;;;5004475;28;19920;-51
2023/01/17 02:53:21;;;;;;;;;;;19.90;43.80;;;;;;5011864;28;19917;-51
2023/01/17 02:55:51;;;;;;;;;;;19.80;44.10;;;;;;4997413;28;19924;-52
2023/01/17 02:58:16;;;;;;;;;;;19.80;44.20;;;;;;5002684;28;20009;-51
2023/01/17 03:01:00;;;;;;;;;;;19.70;44.10;;;;;;5002546;28;19973;-51
2023/01/17 03:03:26;;;;;;;;;;;19.60;44.10;;;;;;5009932;28;19913;-51
2023/01/17 03:06:11;;;;;;;;;;;19.60;44.30;;;;;;5004775;28;20371;-51
2023/01/17 03:08:43;;;;;;;;;;;19.60;44.10;;;;;;5008830;28;19936;-51
2023/01/17 03:11:08;;;;;;;;;;;19.60;44.30;;;;;;4995855;28;19921;-51
2023/01/17 03:13:34;;;;;;;;;;;19.50;44.00;;;;;;5010230;28;19928;-51
2023/01/17 03:16:00;;;;;;;;;;;19.50;44.00;;;;;;5008471;28;19917;-51
2023/01/17 03:18:25;;;;;;;;;;;19.40;44.20;;;;;;5012922;28;19996;-53
2023/01/17 03:20:51;;;;;;;;;;;19.40;44.40;;;;;;5001319;28;19918;-51
2023/01/17 03:23:16;;;;;;;;;;;19.30;45.10;;;;;;5004897;28;20083;-51
2023/01/17 03:25:42;;;;;;;;;;;19.20;44.60;;;;;;5003803;28;20076;-51
2023/01/17 03:28:07;;;;;;;;;;;19.10;44.60;;;;;;5005497;28;19924;-52
2023/01/17 03:30:33;;;;;;;;;;;19.00;44.80;;;;;;4997034;28;19982;-51
2023/01/17 03:32:58;;;;;;;;;;;18.90;44.80;;;;;;5016868;28;19913;-51
2023/01/17 03:35:24;;;;;;;;;;;18.90;45.00;;;;;;5002837;28;19922;-52
2023/01/17 03:37:49;;;;;;;;;;;18.80;45.10;;;;;;5009192;28;20386;-52
2023/01/17 03:40:15;;;;;;;;;;;18.80;45.30;;;;;;4996296;28;19941;-52
2023/01/17 03:42:40;;;;;;;;;;;18.80;45.30;;;;;;5001451;28;19913;-51
2023/01/17 03:45:06;;;;;;;;;;;18.70;45.20;;;;;;5007911;28;20301;-51
2023/01/17 03:47:33;;;;;;;;;;;18.70;45.20;;;;;;5002648;28;19914;-52
2023/01/17 03:49:58;;;;;;;;;;;18.70;45.40;;;;;;5004750;28;19929;-52
2023/01/17 03:52:23;;;;;;;;;;;18.70;45.40;;;;;;5010451;28;19917;-52
2023/01/17 03:54:49;;;;;;;;;;;18.70;45.50;;;;;;5006273;28;20480;-52
2023/01/17 03:57:14;;;;;;;;;;;18.60;45.50;;;;;;5011437;28;20421;-52
2023/01/17 03:59:40;;;;;;;;;;;18.60;45.60;;;;;;4996591;28;20036;-52
2023/01/17 04:02:05;;;;;;;;;;;18.60;45.70;;;;;;4995830;28;19918;-52
2023/01/17 04:04:31;;;;;;;;;;;18.60;45.80;;;;;;5013512;28;19914;-52
2023/01/17 04:06:56;;;;;;;;;;;18.60;45.70;;;;;;5008450;28;20358;-53
2023/01/17 04:09:22;;;;;;;;;;;18.60;45.80;;;;;;5012088;28;20459;-52
2023/01/17 04:11:49;;;;;;;;;;;18.60;45.60;;;;;;5014125;28;19923;-52
2023/01/17 04:14:15;;;;;;;;;;;18.60;45.80;;;;;;5002638;28;19921;-52
2023/01/17 04:16:40;;;;;;;;;;;18.60;45.50;;;;;;5011874;28;19920;-52
2023/01/17 04:19:07;;;;;;;;;;;18.70;45.50;;;;;;5002647;28;19922;-52
2023/01/17 04:21:33;;;;;;;;;;;18.70;45.70;;;;;;5027875;28;19921;-52
2023/01/17 04:23:58;;;;;;;;;;;18.70;45.50;;;;;;5001044;28;19925;-52
2023/01/17 04:26:24;;;;;;;;;;;18.70;45.50;;;;;;5005961;28;19918;-52
2023/01/17 04:28:49;;;;;;;;;;;18.70;45.40;;;;;;5012319;28;19953;-52
2023/01/17 04:31:15;;;;;;;;;;;18.70;45.40;;;;;;5000610;28;19967;-52
2023/01/17 04:33:40;;;;;;;;;;;18.70;45.40;;;;;;4998128;28;19968;-51
2023/01/17 04:36:06;;;;;;;;;;;18.70;45.30;;;;;;5000379;28;19913;-51
2023/01/17 04:38:31;;;;;;;;;;;18.70;45.30;;;;;;4995573;28;19914;-51
2023/01/17 04:40:57;;;;;;;;;;;18.70;45.30;;;;;;5002260;28;19929;-51
2023/01/17 04:43:22;;;;;;;;;;;18.70;45.30;;;;;;5014978;28;19920;-51
2023/01/17 04:45:52;;;;;;;;;;;18.70;46.00;;;;;;4998912;28;19940;-51
2023/01/17 04:48:18;;;;;;;;;;;18.70;45.30;;;;;;4997623;28;20358;-51
2023/01/17 04:50:43;;;;;;;;;;;18.80;45.30;;;;;;5003818;28;19948;-53
2023/01/17 04:53:09;;;;;;;;;;;18.70;45.20;;;;;;4996628;28;19925;-51
2023/01/17 04:55:34;;;;;;;;;;;18.70;45.30;;;;;;5002900;28;19925;-51
2023/01/17 04:57:59;;;;;;;;;;;18.70;45.30;;;;;;5000174;28;20354;-51
2023/01/17 05:00:25;;;;;;;;;;;18.80;45.30;;;;;;4997560;28;20016;-51
2023/01/17 05:02:50;;;;;;;;;;;18.70;45.30;;;;;;5007095;28;19913;-51
2023/01/17 05:05:16;;;;;;;;;;;18.70;45.40;;;;;;4996094;28;19921;-54
2023/01/17 05:07:41;;;;;;;;;;;18.80;45.40;;;;;;5004954;28;19949;-51
2023/01/17 05:10:07;;;;;;;;;;;18.80;45.30;;;;;;5006499;28;19925;-51
2023/01/17 05:12:33;;;;;;;;;;;18.70;45.30;;;;;;5000809;28;19920;-53
2023/01/17 05:14:58;;;;;;;;;;;18.70;45.20;;;;;;5004315;28;19926;-51
2023/01/17 05:17:24;;;;;;;;;;;18.70;45.30;;;;;;4995031;28;19924;-52
2023/01/17 05:19:49;;;;;;;;;;;18.60;45.30;;;;;;5007960;28;19917;-53
2023/01/17 05:22:15;;;;;;;;;;;18.70;45.30;;;;;;4994472;28;19918;-51
2023/01/17 05:24:43;;;;;;;;;;;18.70;45.20;;;;;;4997381;28;20041;-51
2023/01/17 05:27:09;;;;;;;;;;;18.70;45.20;;;;;;5005714;28;20292;-51
2023/01/17 05:29:35;;;;;;;;;;;18.70;45.30;;;;;;5000557;28;20037;-51
2023/01/17 05:32:00;;;;;;;;;;;18.70;45.40;;;;;;5004646;28;19913;-51
2023/01/17 05:34:25;;;;;;;;;;;18.60;45.40;;;;;;4995998;28;20453;-51
2023/01/17 05:36:51;;;;;;;;;;;18.60;45.50;;;;;;5013025;28;20399;-51
2023/01/17 05:39:16;;;;;;;;;;;18.50;45.40;;;;;;5005332;28;20349;-51
2023/01/17 05:41:42;;;;;;;;;;;18.60;45.50;;;;;;4993698;28;20382;-51
2023/01/17 05:44:07;;;;;;;;;;;18.60;45.40;;;;;;5003154;28;20292;-52
2023/01/17 05:46:33;;;;;;;;;;;18.60;45.30;;;;;;4993365;28;19914;-52
2023/01/17 05:48:58;;;;;;;;;;;18.70;45.30;;;;;;5001662;28;20710;-53
2023/01/17 05:51:24;;;;;;;;;;;18.70;45.20;;;;;;4998421;28;19918;-52
2023/01/17 05:53:49;;;;;;;;;;;18.70;45.20;;;;;;5000131;28;19917;-52
2023/01/17 05:56:14;;;;;;;;;;;18.60;45.20;;;;;;4996558;28;19914;-52
2023/01/17 05:58:40;;;;;;;;;;;18.60;45.10;;;;;;5000074;28;20006;-53
2023/01/17 06:01:05;;;;;;;;;;;18.60;45.10;;;;;;4993086;28;19918;-52
2023/01/17 06:03:31;;;;;;;;;;;18.60;45.10;;;;;;5003832;28;19913;-51
2023/01/17 06:05:56;;;;;;;;;;;18.60;45.00;;;;;;5004116;28;20289;-51
2023/01/17 06:08:22;;;;;;;;;;;18.60;44.90;;;;;;4996193;28;19936;-51
2023/01/17 06:10:47;;;;;;;;;;;18.60;44.80;;;;;;5008315;28;19922;-51
2023/01/17 06:13:15;;;;;;;;;;;18.60;44.70;;;;;;5000789;28;19910;-51
2023/01/17 06:15:40;;;;;;;;;;;18.60;44.70;;;;;;4995804;28;19921;-51
2023/01/17 06:18:06;;;;;;;;;;;18.60;44.70;;;;;;5000601;28;19914;-51
2023/01/17 06:20:32;;;;;;;;;;;18.70;44.80;;;;;;5017626;28;19924;-52
2023/01/17 06:22:59;;;;;;;;;;;18.60;44.80;;;;;;5000780;28;20320;-52
2023/01/17 06:25:24;;;;;;;;;;;18.70;44.90;;;;;;4999489;28;19917;-52
2023/01/17 06:27:50;;;;;;;;;;;18.70;44.90;;;;;;4998821;28;19914;-52
2023/01/17 06:30:16;;;;;;;;;;;18.60;44.80;;;;;;5011691;28;20002;-51
2023/01/17 06:32:41;;;;;;;;;;;18.60;44.90;;;;;;5016923;28;19909;-51
2023/01/17 06:35:07;;;;;;;;;;;18.60;44.90;;;;;;5003022;28;19909;-51
2023/01/17 06:37:32;;;;;;;;;;;18.60;45.00;;;;;;5006812;28;19945;-51
2023/01/17 06:39:58;;;;;;;;;;;18.60;45.10;;;;;;5002239;28;19918;-52
2023/01/17 06:42:23;;;;;;;;;;;18.60;45.20;;;;;;5004659;28;20100;-51
2023/01/17 06:44:48;;;;;;;;;;;18.60;45.10;;;;;;5039272;28;19921;-51
2023/01/17 06:47:14;;;;;;;;;;;18.50;45.20;;;;;;4996749;28;19917;-52
2023/01/17 06:49:39;;;;;;;;;;;18.50;45.90;;;;;;4996864;28;19913;-52
2023/01/17 06:52:05;;;;;;;;;;;18.50;45.30;;;;;;5009013;28;19914;-51
2023/01/17 06:54:30;;;;;;;;;;;18.50;45.20;;;;;;5013485;28;19918;-51
2023/01/17 06:56:56;;;;;;;;;;;18.50;45.30;;;;;;5003506;28;19988;-51
2023/01/17 06:59:21;;;;;;;;;;;18.50;45.40;;;;;;4997478;28;19936;-51
2023/01/17 07:01:46;;;;;;;;;;;18.50;45.40;;;;;;4999482;28;19918;-52
2023/01/17 07:04:12;;;;;;;;;;;18.50;45.30;;;;;;5001750;28;19968;-51
2023/01/17 07:06:37;;;;;;;;;;;18.50;45.40;;;;;;4997199;28;20277;-52
2023/01/17 07:09:03;;;;;;;;;;;18.50;45.40;;;;;;4996975;28;20254;-51
2023/01/17 07:11:28;;;;;;;;;;;18.50;45.40;;;;;;4999279;28;19914;-51
2023/01/17 07:13:54;;;;;;;;;;;18.50;45.30;;;;;;5007030;28;19924;-51
2023/01/17 07:16:19;;;;;;;;;;;18.50;45.40;;;;;;5015724;28;20414;-52
2023/01/17 07:18:45;;;;;;;;;;;18.50;45.30;;;;;;5004234;28;19921;-51
2023/01/17 07:21:11;;;;;;;;;;;18.50;45.40;;;;;;5025083;28;19920;-52
2023/01/17 07:23:36;;;;;;;;;;;18.50;45.40;;;;;;5003930;28;19944;-52
2023/01/17 07:26:03;;;;;;;;;;;18.50;45.40;;;;;;5008922;28;19914;-51
2023/01/17 07:28:28;;;;;;;;;;;18.50;45.40;;;;;;5018437;28;19917;-51
2023/01/17 07:30:54;;;;;;;;;;;18.50;45.40;;;;;;5014068;28;19936;-51
2023/01/17 07:33:19;;;;;;;;;;;18.50;45.50;;;;;;5007252;28;19926;-52
2023/01/17 07:35:45;;;;;;;;;;;18.50;45.70;;;;;;5015980;28;19913;-51
2023/01/17 07:38:17;;;;;;;;;;;18.50;45.60;;;;;;5024837;28;20381;-51
2023/01/17 07:40:43;;;;;;;;;;;18.50;45.60;;;;;;5014975;28;19917;-52
2023/01/17 07:43:15;;;;;;;;;;;18.50;45.70;;;;;;5016558;28;19920;-52
2023/01/17 07:45:50;;;;;;;;;;;18.40;45.70;;;;;;5003015;28;19962;-52
2023/01/17 07:48:16;;;;;;;;;;;18.40;45.80;;;;;;5014699;28;20047;-51
2023/01/17 07:50:42;;;;;;;;;;;18.40;45.90;;;;;;5003801;28;19914;-51
2023/01/17 07:53:07;;;;;;;;;;;18.40;46.00;;;;;;5014788;28;20341;-52
2023/01/17 07:55:33;;;;;;;;;;;18.40;46.00;;;;;;5013570;28;19924;-52
2023/01/17 07:57:58;;;;;;;;;;;19.10;45.20;;;;;;5009902;28;19944;-51
2023/01/17 08:00:27;;;;;;;;;;;20.00;43.60;;;;;;5007768;28;19918;-51
2023/01/17 08:03:00;;;;;;;;;;;20.90;41.90;;;;;;5004611;28;20305;-52
2023/01/17 08:05:25;;;;;;;;;;;21.60;40.60;;;;;;5003175;28;19917;-52
2023/01/17 08:07:51;;;;;;;;;;;22.10;39.80;;;;;;5009160;28;19918;-52
2023/01/17 08:10:16;;;;;;;;;;;22.50;39.30;;;;;;5004979;28;19952;-52
2023/01/17 08:12:45;;;;;;;;;;;22.70;38.90;;;;;;5006981;28;19921;-52
2023/01/17 08:15:11;;;;;;;;;;;22.80;38.60;;;;;;4995452;28;19918;-52
2023/01/17 08:17:37;;;;;;;;;;;23.00;38.40;;;;;;5001788;28;19913;-51
2023/01/17 08:20:02;;;;;;;;;;;23.10;38.40;;;;;;5004817;28;19970;-52
2023/01/17 08:22:29;;;;;;;;;;;23.10;38.20;;;;;;5008393;28;19983;-51
2023/01/17 08:24:54;;;;;;;;;;;23.20;38.30;;;;;;5015878;28;19971;-52
2023/01/17 08:27:20;;;;;;;;;;;23.20;38.10;;;;;;4998915;28;20345;-51
2023/01/17 08:29:47;;;;;;;;;;;23.30;38.10;;;;;;5011372;28;20337;-52
2023/01/17 08:32:13;;;;;;;;;;;23.40;38.00;;;;;;4997092;28;19949;-52
2023/01/17 08:34:38;;;;;;;;;;;23.40;37.90;;;;;;5032518;28;19968;-52
2023/01/17 08:37:03;;;;;;;;;;;23.40;37.90;;;;;;5010570;28;20333;-52
2023/01/17 08:39:29;;;;;;;;;;;23.50;37.90;;;;;;5002302;28;20236;-52
2023/01/17 08:41:56;;;;;;;;;;;23.50;37.80;;;;;;5001479;28;19922;-52
2023/01/17 08:44:21;;;;;;;;;;;23.50;37.80;;;;;;5011052;28;19925;-52
2023/01/17 08:46:47;;;;;;;;;;;23.50;37.70;;;;;;5007402;28;19918;-52
2023/01/17 08:49:12;;;;;;;;;;;23.60;37.60;;;;;;5001945;28;20362;-52
2023/01/17 08:51:38;;;;;;;;;;;23.70;37.70;;;;;;4997483;28;20382;-52
2023/01/17 08:54:03;;;;;;;;;;;23.70;37.60;;;;;;5003736;28;19917;-52
2023/01/17 08:56:29;;;;;;;;;;;23.70;37.60;;;;;;5007305;28;19918;-52
2023/01/17 08:58:54;;;;;;;;;;;23.70;37.50;;;;;;5014945;28;19914;-52
2023/01/17 09:01:20;;;;;;;;;;;23.70;37.50;;;;;;5016625;28;19971;-52
2023/01/17 09:03:47;;;;;;;;;;;23.80;37.50;;;;;;5011523;28;19920;-52
2023/01/17 09:06:13;;;;;;;;;;;23.80;37.50;;;;;;5003355;28;19922;-52
2023/01/17 09:08:39;;;;;;;;;;;23.80;37.60;;;;;;4998389;28;19940;-52
2023/01/17 09:11:05;;;;;;;;;;;23.80;37.70;;;;;;5010191;28;20353;-51
2023/01/17 09:13:30;;;;;;;;;;;23.90;37.60;;;;;;5009652;28;20012;-52
2023/01/17 09:15:56;;;;;;;;;;;23.90;37.60;;;;;;5006353;28;20384;-52
2023/01/17 09:18:21;;;;;;;;;;;23.90;37.60;;;;;;5011875;28;20012;-52
2023/01/17 09:20:47;;;;;;;;;;;23.90;37.60;;;;;;5008578;28;19918;-53
2023/01/17 09:23:12;;;;;;;;;;;24.00;37.50;;;;;;5004248;28;19930;-52
2023/01/17 09:25:43;;;;;;;;;;;24.00;37.40;;;;;;5007847;28;20053;-52
2023/01/17 09:28:09;;;;;;;;;;;24.00;37.40;;;;;;5003532;28;19972;-52
2023/01/17 09:30:35;;;;;;;;;;;24.00;37.40;;;;;;5002248;28;19977;-52
2023/01/17 09:33:00;;;;;;;;;;;24.00;37.30;;;;;;5003327;28;19917;-51
2023/01/17 09:35:26;;;;;;;;;;;24.10;37.40;;;;;;5011273;28;19914;-52
2023/01/17 09:37:51;;;;;;;;;;;24.10;37.40;;;;;;4998314;28;19913;-52
2023/01/17 09:40:17;;;;;;;;;;;24.10;37.30;;;;;;5007145;28;19926;-52
2023/01/17 09:42:43;;;;;;;;;;;24.10;37.30;;;;;;5000507;28;19964;-52
2023/01/17 09:45:13;;;;;;;;;;;24.10;37.20;;;;;;5004985;28;19955;-52
2023/01/17 09:47:50;;;;;;;;;;;24.20;37.20;;;;;;4998316;28;19926;-51
2023/01/17 09:50:24;;;;;;;;;;;24.20;37.10;;;;;;5006468;28;19956;-52
2023/01/17 09:52:52;;;;;;;;;;;24.20;37.20;;;;;;4993188;28;19968;-52
2023/01/17 09:55:17;;;;;;;;;;;24.20;37.30;;;;;;5030391;28;19914;-52
2023/01/17 09:57:42;;;;;;;;;;;24.10;37.40;;;;;;5008170;28;20008;-52
2023/01/17 10:00:11;;;;;;;;;;;24.10;37.30;;;;;;5003557;28;19987;-52
2023/01/17 10:02:39;;;;;;;;;;;24.20;37.30;;;;;;5042491;28;19917;-53
2023/01/17 10:05:23;;;;;;;;;;;24.10;37.20;;;;;;5042699;28;19921;-52
2023/01/17 10:07:58;;;;;;;;;;;24.20;37.20;;;;;;5002193;28;20036;-52
2023/01/17 10:10:29;;;;;;;;;;;24.30;37.30;;;;;;5009762;28;20166;-53
2023/01/17 10:12:55;;;;;;;;;;;24.20;37.10;;;;;;5011138;28;19920;-53
2023/01/17 10:15:27;;;;;;;;;;;24.30;37.00;;;;;;4994913;28;19921;-52
2023/01/17 10:18:02;;;;;;;;;;;24.30;37.10;;;;;;5033162;28;19916;-51
2023/01/17 10:20:32;;;;;;;;;;;24.40;37.10;;;;;;5037726;28;19921;-51
2023/01/17 10:23:02;;;;;;;;;;;24.40;37.10;;;;;;5009425;28;19930;-52
2023/01/17 10:25:33;;;;;;;;;;;24.40;37.10;;;;;;5010693;28;19920;-51
2023/01/17 10:28:01;;;;;;;;;;;24.50;37.20;;;;;;5004912;28;19917;-52
2023/01/17 10:30:29;;;;;;;;;;;24.50;37.20;;;;;;4998039;28;19996;-51
2023/01/17 10:32:55;;;;;;;;;;;24.60;37.20;;;;;;5041107;28;20004;-52
2023/01/17 10:35:21;;;;;;;;;;;24.50;37.20;;;;;;5006285;28;19955;-52
2023/01/17 10:37:47;;;;;;;;;;;24.60;37.30;;;;;;5003120;28;19968;-53
2023/01/17 10:40:15;;;;;;;;;;;24.60;37.20;;;;;;5008366;28;19913;-51
2023/01/17 10:43:00;;;;;;;;;;;24.60;37.20;;;;;;5050801;28;19960;-52
2023/01/17 10:45:27;;;;;;;;;;;24.60;37.20;;;;;;5003296;28;20650;-52
2023/01/17 10:48:01;;;;;;;;;;;24.60;37.20;;;;;;4997636;28;19961;-52
2023/01/17 10:50:27;;;;;;;;;;;24.60;37.20;;;;;;5033695;28;19914;-51
2023/01/17 10:52:59;;;;;;;;;;;24.60;37.20;;;;;;5034800;28;19937;-52
2023/01/17 10:55:31;;;;;;;;;;;24.60;37.20;;;;;;5033908;28;19948;-52
2023/01/17 10:58:00;;;;;;;;;;;24.50;37.20;;;;;;5004420;28;20000;-52
2023/01/17 11:00:38;;;;;;;;;;;24.60;37.30;;;;;;5009936;28;19918;-52
2023/01/17 11:03:04;;;;;;;;;;;24.50;37.20;;;;;;5041147;28;19925;-52
2023/01/17 11:05:30;;;;;;;;;;;24.50;37.20;;;;;;4998634;28;20550;-52
2023/01/17 11:07:59;;;;;;;;;;;24.50;37.20;;;;;;5006026;28;19935;-51
2023/01/17 11:10:38;;;;;;;;;;;24.50;37.90;;;;;;5005467;28;19914;-51
2023/01/17 11:13:18;;;;;;;;;;;24.50;37.20;;;;;;5007594;28;19928;-51
2023/01/17 11:15:44;;;;;;;;;;;24.50;37.20;;;;;;5029452;28;19920;-52
2023/01/17 11:18:13;;;;;;;;;;;24.50;37.30;;;;;;5036858;28;20016;-51
2023/01/17 11:20:39;;;;;;;;;;;24.40;37.50;;;;;;5035627;28;20021;-52
2023/01/17 11:23:04;;;;;;;;;;;24.50;37.40;;;;;;5014219;28;20019;-51
2023/01/17 11:25:32;;;;;;;;;;;24.60;37.40;;;;;;5006791;28;20358;-52
2023/01/17 11:28:05;;;;;;;;;;;24.50;37.30;;;;;;5041713;28;20301;-51
2023/01/17 11:30:30;;;;;;;;;;;24.50;37.30;;;;;;5006513;28;20333;-52
2023/01/17 11:33:00;;;;;;;;;;;24.60;37.30;;;;;;5011710;28;19921;-51
2023/01/17 11:35:32;;;;;;;;;;;24.60;37.30;;;;;;5040829;28;19917;-51
2023/01/17 11:38:19;;;;;;;;;;;24.60;37.30;;;;;;5039652;28;19913;-53
2023/01/17 11:40:48;;;;;;;;;;;24.70;37.40;;;;;;5002912;28;19918;-51
2023/01/17 11:43:20;;;;;;;;;;;24.70;37.30;;;;;;5013038;28;20404;-51
2023/01/17 11:45:58;;;;;;;;;;;24.70;37.30;;;;;;5006331;28;19964;-53
2023/01/17 11:48:24;;;;;;;;;;;24.60;37.20;;;;;;5009510;28;20370;-53
2023/01/17 11:50:52;;;;;;;;;;;24.60;37.20;;;;;;5009939;28;20012;-53
2023/01/17 11:53:22;;;;;;;;;;;24.70;37.20;;;;;;5014130;28;19932;-52
2023/01/17 11:56:07;;;;;;;;;;;24.70;37.10;;;;;;4997480;28;20277;-52
2023/01/17 11:58:33;;;;;;;;;;;24.70;37.10;;;;;;5011184;28;19914;-52
2023/01/17 12:00:59;;;;;;;;;;;24.80;37.20;;;;;;5044167;28;20329;-52
2023/01/17 12:03:44;;;;;;;;;;;24.80;37.00;;;;;;5039846;28;19988;-52
2023/01/17 12:06:21;;;;;;;;;;;24.80;37.10;;;;;;5013494;28;19957;-51
2023/01/17 12:09:07;;;;;;;;;;;24.80;37.20;;;;;;5011193;28;19975;-52
2023/01/17 12:14:44;;;;;;;;;;;24.80;37.30;;;;;;5015649;28;19967;-52
2023/01/17 12:17:33;;;;;;;;;;;24.70;37.20;;;;;;5032005;28;19917;-52
2023/01/17 12:19:59;;;;;;;;;;;24.70;37.30;;;;;;5009822;28;19918;-52
2023/01/17 12:22:27;;;;;;;;;;;24.80;37.30;;;;;;5036305;28;20039;-51
2023/01/17 12:25:13;;;;;;;;;;;24.80;37.30;;;;;;5009042;28;19922;-52
2023/01/17 12:27:39;;;;;;;;;;;24.80;37.10;;;;;;5009924;28;19933;-51
2023/01/17 12:30:07;;;;;;;;;;;24.80;37.10;;;;;;5000291;28;20358;-51
2023/01/17 12:32:51;;;;;;;;;;;24.80;37.10;;;;;;4997883;28;20294;-51
2023/01/17 12:35:37;;;;;;;;;;;24.80;37.10;;;;;;5001961;28;19955;-51
2023/01/17 12:38:13;;;;;;;;;;;24.70;37.00;;;;;;5006326;28;19937;-52
2023/01/17 12:40:43;;;;;;;;;;;24.70;37.00;;;;;;5049611;28;19914;-51
2023/01/17 12:43:12;;;;;;;;;;;24.70;36.90;;;;;;5008149;28;19925;-51
2023/01/17 12:45:38;;;;;;;;;;;24.70;37.00;;;;;;5008506;28;20661;-52
2023/01/17 12:48:05;;;;;;;;;;;24.80;37.00;;;;;;5041219;28;19925;-52
2023/01/17 12:50:37;;;;;;;;;;;24.80;37.00;;;;;;5015338;28;19944;-52
2023/01/17 12:53:12;;;;;;;;;;;24.90;37.10;;;;;;5010601;28;19913;-52
2023/01/17 12:55:40;;;;;;;;;;;24.80;36.90;;;;;;5001339;28;20366;-51
2023/01/17 12:58:06;;;;;;;;;;;24.90;36.90;;;;;;5009302;28;19918;-51
2023/01/17 13:00:31;;;;;;;;;;;24.90;37.00;;;;;;5005498;28;19964;-51
2023/01/17 13:02:57;;;;;;;;;;;24.90;36.90;;;;;;5005009;28;19933;-51
2023/01/17 13:05:24;;;;;;;;;;;24.90;37.10;;;;;;5011016;28;19920;-52
2023/01/17 13:07:56;;;;;;;;;;;24.90;37.10;;;;;;5040259;28;19918;-51
2023/01/17 13:10:24;;;;;;;;;;;24.90;37.10;;;;;;5011416;28;19917;-51
2023/01/17 13:12:50;;;;;;;;;;;25.00;37.20;;;;;;5010975;28;20045;-52
2023/01/17 13:15:16;;;;;;;;;;;25.00;37.20;;;;;;5003210;28;20484;-52
2023/01/17 13:17:47;;;;;;;;;;;25.00;37.20;;;;;;5002863;28;19914;-51
2023/01/17 13:20:15;;;;;;;;;;;25.00;37.00;;;;;;5029562;28;19921;-51
2023/01/17 13:22:41;;;;;;;;;;;25.00;37.10;;;;;;5003539;28;19921;-51
2023/01/17 13:25:25;;;;;;;;;;;25.00;37.10;;;;;;5003616;28;19975;-52
2023/01/17 13:27:59;;;;;;;;;;;24.90;37.10;;;;;;5003207;28;19924;-51
2023/01/17 13:30:35;;;;;;;;;;;24.90;37.50;;;;;;4998731;28;19980;-50
2023/01/17 13:33:06;;;;;;;;;;;24.90;37.50;;;;;;4998468;28;19983;-52
2023/01/17 13:35:42;;;;;;;;;;;24.90;37.50;;;;;;5040562;28;20412;-52
2023/01/17 13:38:07;;;;;;;;;;;24.90;37.50;;;;;;5012519;28;20337;-51
2023/01/17 13:40:40;;;;;;;;;;;25.00;38.10;;;;;;5002654;28;19921;-53
2023/01/17 13:43:12;;;;;;;;;;;25.00;37.40;;;;;;5007783;28;19959;-51
2023/01/17 13:45:37;;;;;;;;;;;24.90;37.40;;;;;;5044895;28;19921;-53
2023/01/17 13:48:13;;;;;;;;;;;24.90;37.30;;;;;;5035684;28;19967;-52
2023/01/17 13:50:47;;;;;;;;;;;24.90;38.00;;;;;;5010401;28;20000;-51
2023/01/17 13:53:31;;;;;;;;;;;24.90;37.60;;;;;;5002502;28;19913;-54
2023/01/17 13:55:58;;;;;;;;;;;24.90;37.50;;;;;;5006586;28;19913;-53
2023/01/17 13:58:43;;;;;;;;;;;24.90;37.50;;;;;;5029732;28;19920;-53
2023/01/17 14:01:09;;;;;;;;;;;24.90;37.50;;;;;;4999621;28;19921;-51
2023/01/17 14:03:50;;;;;;;;;;;24.60;37.30;;;;;;5036037;28;19928;-52
2023/01/17 14:06:34;;;;;;;;;;;24.30;37.60;;;;;;5007538;28;19913;-53
2023/01/17 14:09:18;;;;;;;;;;;23.90;38.30;;;;;;4995129;28;20562;-53
2023/01/17 14:11:52;;;;;;;;;;;23.60;39.00;;;;;;5009253;28;19921;-52
2023/01/17 14:14:36;;;;;;;;;;;23.30;40.30;;;;;;5011491;28;19917;-51
2023/01/17 14:17:28;;;;;;;;;;;23.00;40.20;;;;;;4999445;28;19936;-52
2023/01/17 14:19:54;;;;;;;;;;;22.70;40.70;;;;;;5010439;28;20271;-51
2023/01/17 14:22:20;;;;;;;;;;;22.50;41.20;;;;;;5003605;28;19922;-51
2023/01/17 14:24:56;;;;;;;;;;;22.30;41.50;;;;;;5010515;28;19921;-53
2023/01/17 14:27:22;;;;;;;;;;;22.10;41.70;;;;;;5038381;28;19959;-51
2023/01/17 14:29:49;;;;;;;;;;;22.00;42.00;;;;;;5005260;28;19913;-53
2023/01/17 14:32:19;;;;;;;;;;;21.90;41.90;;;;;;5039070;28;19980;-52
2023/01/17 14:34:45;;;;;;;;;;;21.80;42.00;;;;;;5043894;28;20468;-53
2023/01/17 14:37:17;;;;;;;;;;;21.70;42.10;;;;;;5006341;28;19914;-52
2023/01/17 14:39:44;;;;;;;;;;;21.60;42.20;;;;;;5041296;28;19925;-52
2023/01/17 14:42:12;;;;;;;;;;;21.50;42.50;;;;;;5007662;28;20013;-52
2023/01/17 14:44:38;;;;;;;;;;;21.30;42.90;;;;;;5010747;28;19913;-53
2023/01/17 14:47:03;;;;;;;;;;;21.30;43.00;;;;;;5004963;28;20270;-52
2023/01/17 14:49:29;;;;;;;;;;;21.30;43.30;;;;;;5000921;28;20480;-53
2023/01/17 14:51:58;;;;;;;;;;;21.40;43.00;;;;;;5002526;28;19917;-52
2023/01/17 14:54:23;;;;;;;;;;;21.70;42.70;;;;;;5013439;28;19913;-51
2023/01/17 14:56:49;;;;;;;;;;;22.00;42.30;;;;;;5009925;28;19932;-51
2023/01/17 14:59:19;;;;;;;;;;;22.20;41.70;;;;;;5009651;28;19917;-53
2023/01/17 15:01:51;;;;;;;;;;;22.50;41.40;;;;;;5005288;28;20328;-51
2023/01/17 15:04:22;;;;;;;;;;;22.50;41.30;;;;;;5042426;28;19918;-52
2023/01/17 15:06:48;;;;;;;;;;;22.50;41.20;;;;;;5005317;28;19914;-52
2023/01/17 15:09:20;;;;;;;;;;;22.50;41.40;;;;;;5012627;28;19971;-51
2023/01/17 15:11:46;;;;;;;;;;;22.30;41.30;;;;;;5016721;28;19913;-51
2023/01/17 15:14:31;;;;;;;;;;;22.30;41.60;;;;;;5010597;28;19914;-51
2023/01/17 15:16:56;;;;;;;;;;;22.20;41.50;;;;;;5007286;28;19949;-52
2023/01/17 15:19:22;;;;;;;;;;;22.30;41.50;;;;;;5037551;28;19952;-51
2023/01/17 15:21:49;;;;;;;;;;;22.40;41.10;;;;;;5013969;28;20348;-51
2023/01/17 15:24:17;;;;;;;;;;;22.50;41.10;;;;;;5001472;28;19930;-51
2023/01/17 15:26:42;;;;;;;;;;;22.60;40.90;;;;;;5008638;28;19913;-51
2023/01/17 15:29:11;;;;;;;;;;;22.60;40.80;;;;;;5009691;28;19921;-51
2023/01/17 15:31:39;;;;;;;;;;;22.50;40.90;;;;;;5046428;28;20309;-52
2023/01/17 15:34:06;;;;;;;;;;;22.50;41.10;;;;;;5011912;28;19918;-51
2023/01/17 15:36:32;;;;;;;;;;;22.30;41.20;;;;;;5005104;28;19920;-52
2023/01/17 15:38:58;;;;;;;;;;;22.20;41.70;;;;;;5005687;28;20254;-51
2023/01/17 15:41:25;;;;;;;;;;;21.90;41.70;;;;;;5009680;28;19926;-52
2023/01/17 15:43:56;;;;;;;;;;;21.80;42.20;;;;;;5011720;28;19959;-53